RJBD

Details ICAO RJBD (SHM)
Name NANKI SHIRAHAMA
Region Japan
Timezone Asia/Tokyo (UTC+9.0)
Plans Departing 12
Arriving 7
Stats Elevation 298 ft / 91 m (AMSL)
Location 33.663960° 135.360019°
Runways 2
Magnetic Variation 7.325° W
Sunrise 2017-12-16 21:58:10 UTC / 2017-12-17 06:58:10 Local
Sunset 2017-12-17 07:53:35 UTC / 2017-12-17 16:53:35 Local
Advertisement - Login to hide

Runways

ID Width Length Bearing (true) Bearing (mag) Surface Threshold Offset Overrun Length
15 148 ft / 45 m 6,569 ft / 2,002 m 141.10° 148.43° Asphalt 0 ft / 0 m 213 ft / 65 m
16 98 ft / 30 m 4,325 ft / 1,318 m 157.25° 164.58° Asphalt 186 ft / 57 m 0 ft / 0 m
33 148 ft / 45 m 6,569 ft / 2,002 m 321.10° 328.43° Asphalt 0 ft / 0 m 218 ft / 66 m
34 98 ft / 30 m 4,325 ft / 1,318 m 337.25° 344.58° Asphalt 193 ft / 59 m 0 ft / 0 m

Map

Weather


0- 5 10 15 20 25 30 35+ Temperature / ° C

Clouds and Precipitation
Forecast for 2017-12-17 06:00 UTC. Updated 2 hours ago

Ground ~20,000 ft ~40,000 ft Winds

METAR

RJBD 170200Z 32018KT 9999 -SHSN FEW020 SCT035 BKN050 05/M03 Q1022

TAF

Not found
Warning: Do not use this data for real-world aviation or navigation. No guarantee of current accuracy is given.